sensor_id;sensor_type;location;lat;lon;timestamp;pressure;altitude;pressure_sealevel;temperature;humidity
45941;BME280;31858;46.008;8.978;2023-03-19T00:06:34;94637.72;;;8.26;82.21
45941;BME280;31858;46.008;8.978;2023-03-19T00:16:37;94634.16;;;8.18;87.77
45941;BME280;31858;46.008;8.978;2023-03-19T00:26:39;94640.41;;;8.07;90.67
45941;BME280;31858;46.008;8.978;2023-03-19T00:36:42;94638.69;;;7.95;95.58
45941;BME280;31858;46.008;8.978;2023-03-19T00:46:43;94631.03;;;8.13;91.71
45941;BME280;31858;46.008;8.978;2023-03-19T00:56:46;94630.56;;;8.07;95.78
45941;BME280;31858;46.008;8.978;2023-03-19T01:06:48;94633.50;;;8.02;96.27
45941;BME280;31858;46.008;8.978;2023-03-19T01:16:51;94627.84;;;8.04;98.20
45941;BME280;31858;46.008;8.978;2023-03-19T01:26:53;94616.03;;;8.01;100.00
45941;BME280;31858;46.008;8.978;2023-03-19T01:36:56;94607.47;;;7.89;100.00
45941;BME280;31858;46.008;8.978;2023-03-19T01:47:00;94602.44;;;7.80;100.00
45941;BME280;31858;46.008;8.978;2023-03-19T01:57:06;94594.28;;;7.92;100.00
45941;BME280;31858;46.008;8.978;2023-03-19T02:07:09;94581.59;;;7.82;100.00
45941;BME280;31858;46.008;8.978;2023-03-19T02:17:13;94573.41;;;7.91;100.00
45941;BME280;31858;46.008;8.978;2023-03-19T02:27:16;94574.72;;;7.77;100.00
45941;BME280;31858;46.008;8.978;2023-03-19T02:37:20;94566.59;;;7.47;100.00
45941;BME280;31858;46.008;8.978;2023-03-19T02:47:25;94567.91;;;7.57;100.00
45941;BME280;31858;46.008;8.978;2023-03-19T02:57:26;94577.75;;;7.57;100.00
45941;BME280;31858;46.008;8.978;2023-03-19T03:07:29;94572.44;;;7.57;100.00
45941;BME280;31858;46.008;8.978;2023-03-19T03:17:31;94573.34;;;7.45;100.00
45941;BME280;31858;46.008;8.978;2023-03-19T03:27:34;94574.13;;;7.45;100.00
45941;BME280;31858;46.008;8.978;2023-03-19T03:37:37;94575.59;;;7.43;100.00
45941;BME280;31858;46.008;8.978;2023-03-19T03:47:40;94580.66;;;7.51;100.00
45941;BME280;31858;46.008;8.978;2023-03-19T03:57:41;94581.78;;;7.31;100.00
45941;BME280;31858;46.008;8.978;2023-03-19T04:07:44;94580.13;;;7.23;100.00
45941;BME280;31858;46.008;8.978;2023-03-19T04:17:47;94590.22;;;7.17;100.00
45941;BME280;31858;46.008;8.978;2023-03-19T04:27:50;94588.13;;;7.27;100.00
45941;BME280;31858;46.008;8.978;2023-03-19T04:37:51;94601.09;;;7.12;100.00
45941;BME280;31858;46.008;8.978;2023-03-19T04:47:54;94583.94;;;7.26;100.00
45941;BME280;31858;46.008;8.978;2023-03-19T04:57:56;94604.50;;;7.13;100.00
45941;BME280;31858;46.008;8.978;2023-03-19T05:07:59;94592.53;;;7.19;100.00
45941;BME280;31858;46.008;8.978;2023-03-19T05:18:01;94578.78;;;7.13;100.00
45941;BME280;31858;46.008;8.978;2023-03-19T05:28:04;94604.13;;;6.95;100.00
45941;BME280;31858;46.008;8.978;2023-03-19T05:38:06;94614.72;;;6.95;100.00
45941;BME280;31858;46.008;8.978;2023-03-19T05:48:10;94606.59;;;7.04;100.00
45941;BME280;31858;46.008;8.978;2023-03-19T05:58:11;94619.09;;;6.87;100.00
45941;BME280;31858;46.008;8.978;2023-03-19T06:08:14;94631.50;;;6.83;100.00
45941;BME280;31858;46.008;8.978;2023-03-19T06:18:16;94629.47;;;7.12;100.00
45941;BME280;31858;46.008;8.978;2023-03-19T06:28:19;94640.28;;;6.87;100.00
45941;BME280;31858;46.008;8.978;2023-03-19T06:38:20;94654.22;;;6.84;100.00
45941;BME280;31858;46.008;8.978;2023-03-19T06:48:23;94663.88;;;6.77;100.00
45941;BME280;31858;46.008;8.978;2023-03-19T06:58:25;94655.41;;;6.87;100.00
45941;BME280;31858;46.008;8.978;2023-03-19T07:08:28;94664.38;;;6.98;100.00
45941;BME280;31858;46.008;8.978;2023-03-19T07:18:30;94679.59;;;6.85;100.00
45941;BME280;31858;46.008;8.978;2023-03-19T07:28:33;94679.63;;;7.20;100.00
45941;BME280;31858;46.008;8.978;2023-03-19T07:38:34;94682.38;;;7.08;100.00
45941;BME280;31858;46.008;8.978;2023-03-19T07:48:37;94698.88;;;7.02;100.00
45941;BME280;31858;46.008;8.978;2023-03-19T07:58:39;94692.66;;;7.45;100.00
45941;BME280;31858;46.008;8.978;2023-03-19T08:08:42;94701.84;;;7.32;100.00
45941;BME280;31858;46.008;8.978;2023-03-19T08:18:44;94700.44;;;7.38;100.00
45941;BME280;31858;46.008;8.978;2023-03-19T08:28:47;94707.03;;;7.44;100.00
45941;BME280;31858;46.008;8.978;2023-03-19T08:38:48;94711.78;;;7.54;100.00
45941;BME280;31858;46.008;8.978;2023-03-19T08:48:55;94718.91;;;7.69;100.00
45941;BME280;31858;46.008;8.978;2023-03-19T08:58:57;94725.06;;;7.93;100.00
45941;BME280;31858;46.008;8.978;2023-03-19T09:09:00;94724.84;;;8.21;100.00
45941;BME280;31858;46.008;8.978;2023-03-19T09:19:01;94728.25;;;8.40;100.00
45941;BME280;31858;46.008;8.978;2023-03-19T09:29:04;94721.09;;;8.64;100.00
45941;BME280;31858;46.008;8.978;2023-03-19T09:39:06;94724.81;;;8.82;100.00
45941;BME280;31858;46.008;8.978;2023-03-19T09:49:15;94727.00;;;8.99;100.00
45941;BME280;31858;46.008;8.978;2023-03-19T09:59:23;94723.72;;;9.09;100.00
45941;BME280;31858;46.008;8.978;2023-03-19T10:09:35;94726.13;;;9.18;100.00
45941;BME280;31858;46.008;8.978;2023-03-19T10:19:45;94728.47;;;9.23;100.00
45941;BME280;31858;46.008;8.978;2023-03-19T10:29:51;94720.59;;;9.57;100.00
45941;BME280;31858;46.008;8.978;2023-03-19T10:39:55;94709.09;;;9.79;100.00
45941;BME280;31858;46.008;8.978;2023-03-19T10:49:58;94707.03;;;9.95;100.00
45941;BME280;31858;46.008;8.978;2023-03-19T11:00:02;94700.28;;;10.05;100.00
45941;BME280;31858;46.008;8.978;2023-03-19T11:10:11;94701.91;;;10.13;100.00
45941;BME280;31858;46.008;8.978;2023-03-19T11:20:21;94690.59;;;10.20;100.00
45941;BME280;31858;46.008;8.978;2023-03-19T11:30:27;94683.16;;;10.36;100.00
45941;BME280;31858;46.008;8.978;2023-03-19T11:40:39;94680.25;;;10.52;100.00
45941;BME280;31858;46.008;8.978;2023-03-19T11:50:49;94651.66;;;10.49;100.00
45941;BME280;31858;46.008;8.978;2023-03-19T12:00:52;94658.53;;;10.50;100.00
45941;BME280;31858;46.008;8.978;2023-03-19T12:11:02;94651.25;;;10.46;100.00
45941;BME280;31858;46.008;8.978;2023-03-19T12:21:11;94644.75;;;10.40;100.00
45941;BME280;31858;46.008;8.978;2023-03-19T12:31:27;94630.31;;;10.45;100.00
45941;BME280;31858;46.008;8.978;2023-03-19T12:41:38;94627.72;;;10.52;100.00
45941;BME280;31858;46.008;8.978;2023-03-19T12:51:46;94619.06;;;10.62;100.00
45941;BME280;31858;46.008;8.978;2023-03-19T13:01:56;94611.41;;;10.61;100.00
45941;BME280;31858;46.008;8.978;2023-03-19T13:12:03;94605.03;;;10.72;100.00
45941;BME280;31858;46.008;8.978;2023-03-19T13:22:09;94598.97;;;10.75;100.00
45941;BME280;31858;46.008;8.978;2023-03-19T13:32:25;94600.56;;;10.84;100.00
45941;BME280;31858;46.008;8.978;2023-03-19T13:42:36;94603.16;;;10.76;100.00
45941;BME280;31858;46.008;8.978;2023-03-19T13:52:44;94607.34;;;10.74;100.00
45941;BME280;31858;46.008;8.978;2023-03-19T14:02:50;94587.16;;;10.73;100.00
45941;BME280;31858;46.008;8.978;2023-03-19T14:13:04;94588.63;;;10.67;100.00
45941;BME280;31858;46.008;8.978;2023-03-19T14:23:18;94593.53;;;10.61;100.00
45941;BME280;31858;46.008;8.978;2023-03-19T14:33:27;94580.56;;;10.56;100.00
45941;BME280;31858;46.008;8.978;2023-03-19T14:43:57;94574.03;;;10.50;100.00
45941;BME280;31858;46.008;8.978;2023-03-19T14:54:17;94566.06;;;10.50;100.00
45941;BME280;31858;46.008;8.978;2023-03-19T15:04:23;94562.16;;;10.40;100.00
45941;BME280;31858;46.008;8.978;2023-03-19T15:14:44;94567.09;;;10.35;100.00
45941;BME280;31858;46.008;8.978;2023-03-19T15:24:50;94564.44;;;10.35;100.00
45941;BME280;31858;46.008;8.978;2023-03-19T15:34:56;94570.78;;;10.20;100.00
45941;BME280;31858;46.008;8.978;2023-03-19T15:45:02;94573.34;;;10.12;100.00
45941;BME280;31858;46.008;8.978;2023-03-19T15:55:07;94581.69;;;10.11;100.00
45941;BME280;31858;46.008;8.978;2023-03-19T16:05:21;94577.09;;;10.08;100.00
45941;BME280;31858;46.008;8.978;2023-03-19T16:15:28;94576.34;;;10.07;100.00
45941;BME280;31858;46.008;8.978;2023-03-19T16:25:33;94589.97;;;10.02;100.00
45941;BME280;31858;46.008;8.978;2023-03-19T16:35:36;94594.91;;;10.00;100.00
45941;BME280;31858;46.008;8.978;2023-03-19T16:45:38;94603.28;;;10.02;100.00
45941;BME280;31858;46.008;8.978;2023-03-19T16:55:43;94605.25;;;10.09;100.00
45941;BME280;31858;46.008;8.978;2023-03-19T17:05:45;94608.31;;;10.11;100.00
45941;BME280;31858;46.008;8.978;2023-03-19T17:15:49;94606.06;;;10.13;100.00
45941;BME280;31858;46.008;8.978;2023-03-19T17:25:51;94624.59;;;10.39;100.00
45941;BME280;31858;46.008;8.978;2023-03-19T17:35:56;94628.69;;;10.30;100.00
45941;BME280;31858;46.008;8.978;2023-03-19T17:45:58;94632.78;;;10.20;100.00
45941;BME280;31858;46.008;8.978;2023-03-19T17:56:01;94628.88;;;10.14;100.00
45941;BME280;31858;46.008;8.978;2023-03-19T18:06:03;94642.78;;;9.97;100.00
45941;BME280;31858;46.008;8.978;2023-03-19T18:16:14;94639.38;;;9.66;100.00
45941;BME280;31858;46.008;8.978;2023-03-19T18:26:17;94647.09;;;9.45;100.00
45941;BME280;31858;46.008;8.978;2023-03-19T18:36:22;94663.16;;;9.52;100.00
45941;BME280;31858;46.008;8.978;2023-03-19T18:46:27;94664.13;;;9.70;100.00
45941;BME280;31858;46.008;8.978;2023-03-19T18:56:31;94674.41;;;9.72;100.00
45941;BME280;31858;46.008;8.978;2023-03-19T19:06:33;94682.63;;;9.60;100.00
45941;BME280;31858;46.008;8.978;2023-03-19T19:16:40;94687.09;;;9.52;100.00
45941;BME280;31858;46.008;8.978;2023-03-19T19:26:43;94690.81;;;9.47;100.00
45941;BME280;31858;46.008;8.978;2023-03-19T19:36:46;94688.88;;;9.44;100.00
45941;BME280;31858;46.008;8.978;2023-03-19T19:46:49;94697.91;;;9.36;100.00
45941;BME280;31858;46.008;8.978;2023-03-19T19:56:55;94708.31;;;9.48;100.00
45941;BME280;31858;46.008;8.978;2023-03-19T20:06:57;94707.97;;;9.50;100.00
45941;BME280;31858;46.008;8.978;2023-03-19T20:17:00;94720.53;;;9.53;100.00
45941;BME280;31858;46.008;8.978;2023-03-19T20:27:06;94714.00;;;9.47;100.00
45941;BME280;31858;46.008;8.978;2023-03-19T20:37:10;94720.69;;;9.64;100.00
45941;BME280;31858;46.008;8.978;2023-03-19T20:47:14;94720.34;;;9.39;100.00
45941;BME280;31858;46.008;8.978;2023-03-19T20:57:21;94721.09;;;9.39;100.00
45941;BME280;31858;46.008;8.978;2023-03-19T21:07:28;94737.63;;;9.26;100.00
45941;BME280;31858;46.008;8.978;2023-03-19T21:17:33;94726.47;;;9.16;100.00
45941;BME280;31858;46.008;8.978;2023-03-19T21:27:35;94735.84;;;9.07;100.00
45941;BME280;31858;46.008;8.978;2023-03-19T21:37:38;94732.91;;;8.89;100.00
45941;BME280;31858;46.008;8.978;2023-03-19T21:47:40;94735.91;;;8.88;100.00
45941;BME280;31858;46.008;8.978;2023-03-19T21:57:43;94733.50;;;8.79;100.00
45941;BME280;31858;46.008;8.978;2023-03-19T22:07:45;94729.88;;;8.68;100.00
45941;BME280;31858;46.008;8.978;2023-03-19T22:17:48;94726.22;;;8.76;100.00
45941;BME280;31858;46.008;8.978;2023-03-19T22:27:50;94722.75;;;8.72;100.00
45941;BME280;31858;46.008;8.978;2023-03-19T22:37:53;94708.16;;;8.62;100.00
45941;BME280;31858;46.008;8.978;2023-03-19T22:47:55;94705.03;;;8.57;100.00
45941;BME280;31858;46.008;8.978;2023-03-19T22:57:59;94691.63;;;8.49;100.00
45941;BME280;31858;46.008;8.978;2023-03-19T23:08:02;94684.84;;;8.52;100.00
45941;BME280;31858;46.008;8.978;2023-03-19T23:18:13;94684.94;;;8.36;100.00
45941;BME280;31858;46.008;8.978;2023-03-19T23:28:18;94684.13;;;8.13;100.00
45941;BME280;31858;46.008;8.978;2023-03-19T23:38:21;94681.69;;;8.04;100.00
45941;BME280;31858;46.008;8.978;2023-03-19T23:48:24;94682.69;;;7.77;100.00
45941;BME280;31858;46.008;8.978;2023-03-19T23:58:31;94669.81;;;7.98;100.00
